Time;durP1;ratioP1;P1;durP2;ratioP2;P2;SDS_P1;SDS_P2;PMS_P1;PMS_P2;Temp;Humidity;BMP_temperature;BMP_pressure;BME280_temperature;BME280_humidity;BME280_pressure;Samples;Min_cycle;Max_cycle;Signal;HPM_P1;HPM_P2
2022/08/10 00:01:25;;;;;;;6.43;3.33;;;15.80;46.00;;;;;;4995333;28;20456;-82
2022/08/10 00:03:53;;;;;;;9.17;4.10;;;15.80;46.50;;;;;;5000082;28;20484;-82
2022/08/10 00:06:19;;;;;;;7.27;4.10;;;15.70;47.00;;;;;;4996201;28;20455;-82
2022/08/10 00:08:46;;;;;;;8.53;3.97;;;15.70;47.80;;;;;;4984522;28;20451;-83
2022/08/10 00:11:13;;;;;;;10.50;3.97;;;15.60;49.10;;;;;;4984161;28;20986;-83
2022/08/10 00:13:40;;;;;;;8.03;4.40;;;15.60;49.10;;;;;;4983391;28;20480;-82
2022/08/10 00:16:06;;;;;;;7.60;4.70;;;15.60;49.70;;;;;;4985648;28;20979;-81
2022/08/10 00:18:33;;;;;;;7.57;4.60;;;15.50;50.80;;;;;;4984486;28;20478;-82
2022/08/10 00:21:01;;;;;;;6.60;3.50;;;15.60;49.90;;;;;;4988899;28;20825;-82
2022/08/10 00:23:28;;;;;;;10.00;3.50;;;15.60;49.10;;;;;;5004533;28;20500;-82
2022/08/10 00:25:55;;;;;;;8.17;4.63;;;15.70;49.20;;;;;;5000981;28;20454;-81
2022/08/10 00:28:21;;;;;;;8.30;4.50;;;15.60;49.50;;;;;;4984622;28;20506;-81
2022/08/10 00:30:48;;;;;;;9.00;5.10;;;15.50;50.40;;;;;;4987373;28;20455;-82
2022/08/10 00:33:15;;;;;;;7.30;4.03;;;15.50;51.00;;;;;;5003503;28;20473;-82
2022/08/10 00:35:42;;;;;;;10.10;4.50;;;15.40;52.40;;;;;;5003156;28;20458;-82
2022/08/10 00:38:10;;;;;;;7.70;4.40;;;15.40;52.80;;;;;;4983937;28;20501;-82
2022/08/10 00:40:37;;;;;;;8.73;4.10;;;15.40;52.70;;;;;;4997597;28;20842;-80
2022/08/10 00:43:04;;;;;;;9.67;4.00;;;15.30;52.80;;;;;;4983892;28;20478;-82
2022/08/10 00:45:30;;;;;;;10.40;4.93;;;15.30;53.20;;;;;;4984253;28;20462;-82
2022/08/10 00:47:57;;;;;;;7.93;4.20;;;15.20;54.20;;;;;;4983611;28;20465;-82
2022/08/10 00:50:24;;;;;;;8.50;4.60;;;15.30;55.50;;;;;;4997366;28;20457;-82
2022/08/10 00:52:51;;;;;;;7.00;4.10;;;15.20;55.30;;;;;;4984714;28;20474;-82
2022/08/10 00:55:20;;;;;;;7.20;4.17;;;15.20;55.40;;;;;;4996481;28;20485;-82
2022/08/10 00:57:47;;;;;;;8.87;4.80;;;15.10;55.90;;;;;;5002700;28;20461;-82
2022/08/10 01:00:14;;;;;;;17.60;6.23;;;15.00;55.50;;;;;;4992700;28;20455;-82
2022/08/10 01:02:41;;;;;;;13.50;5.00;;;15.00;57.20;;;;;;5001307;28;20446;-81
2022/08/10 01:05:10;;;;;;;9.77;5.77;;;15.00;57.20;;;;;;4994151;28;20463;-82
2022/08/10 01:07:50;;;;;;;8.47;4.37;;;15.00;57.20;;;;;;4985264;28;20459;-82
2022/08/10 01:10:33;;;;;;;14.17;5.47;;;15.00;58.60;;;;;;4994159;28;20464;-81
2022/08/10 01:13:06;;;;;;;12.53;4.60;;;15.00;59.00;;;;;;4991667;28;20474;-82
2022/08/10 01:15:37;;;;;;;9.50;4.67;;;15.00;59.10;;;;;;5003488;28;20454;-82
2022/08/10 01:18:09;;;;;;;7.93;5.00;;;14.90;59.30;;;;;;4994213;28;20459;-81
2022/08/10 01:20:44;;;;;;;9.30;5.47;;;14.90;60.70;;;;;;4984095;28;20969;-80
2022/08/10 01:23:34;;;;;;;7.97;5.30;;;14.90;60.70;;;;;;5001233;28;20478;-82
2022/08/10 01:26:25;;;;;;;9.80;5.00;;;14.90;61.50;;;;;;5000121;28;20454;-82
2022/08/10 01:29:00;;;;;;;9.57;5.00;;;14.90;61.80;;;;;;4983170;28;20451;-82
2022/08/10 01:31:35;;;;;;;14.23;5.37;;;14.80;61.80;;;;;;4982325;28;20959;-82
2022/08/10 01:34:07;;;;;;;8.13;5.57;;;14.70;61.80;;;;;;4983365;28;20485;-80
2022/08/10 01:36:44;;;;;;;10.77;5.20;;;14.70;63.30;;;;;;4997202;28;20454;-82
2022/08/10 01:39:16;;;;;;;8.60;5.93;;;14.70;65.20;;;;;;5002836;28;20488;-82
2022/08/10 01:41:46;;;;;;;10.10;5.50;;;14.60;65.20;;;;;;4987817;28;20462;-82
2022/08/10 01:44:16;;;;;;;9.10;6.77;;;14.50;66.00;;;;;;4983459;28;20475;-81
2022/08/10 01:46:50;;;;;;;8.53;6.37;;;14.50;66.60;;;;;;4996827;28;20454;-82
2022/08/10 01:49:19;;;;;;;11.03;7.57;;;14.60;67.80;;;;;;5003337;28;20453;-82
2022/08/10 01:51:50;;;;;;;8.73;6.40;;;14.60;67.70;;;;;;4987893;28;20463;-81
2022/08/10 01:54:20;;;;;;;11.00;7.47;;;14.50;67.70;;;;;;4983497;28;20494;-82
2022/08/10 01:56:50;;;;;;;9.73;6.73;;;14.50;68.40;;;;;;4997635;28;20450;-82
2022/08/10 01:59:21;;;;;;;9.63;5.77;;;14.40;69.00;;;;;;5001976;28;20478;-82
2022/08/10 02:01:54;;;;;;;9.77;6.17;;;14.20;67.70;;;;;;4987907;28;20816;-82
2022/08/10 02:04:23;;;;;;;7.83;6.27;;;14.20;68.30;;;;;;4983133;28;20475;-82
2022/08/10 02:06:52;;;;;;;10.57;6.90;;;14.10;69.80;;;;;;4997299;28;20454;-82
2022/08/10 02:09:23;;;;;;;10.27;7.90;;;14.10;70.60;;;;;;5003041;28;20461;-82
2022/08/10 02:11:51;;;;;;;11.83;9.70;;;14.10;72.70;;;;;;4987392;28;20968;-82
2022/08/10 02:14:20;;;;;;;11.27;10.27;;;14.00;73.70;;;;;;4982750;28;20475;-82
2022/08/10 02:16:51;;;;;;;13.07;11.87;;;14.00;75.10;;;;;;4996775;28;20841;-81
2022/08/10 02:19:20;;;;;;;15.57;14.13;;;14.00;75.20;;;;;;5000236;28;20474;-81
2022/08/10 02:21:49;;;;;;;19.30;17.70;;;13.90;77.10;;;;;;4998847;28;20450;-81
2022/08/10 02:24:18;;;;;;;20.40;18.67;;;14.00;77.90;;;;;;4999693;28;20825;-81
2022/08/10 02:26:45;;;;;;;22.27;20.70;;;14.00;78.60;;;;;;4984141;28;20482;-82
2022/08/10 02:29:16;;;;;;;19.87;18.40;;;13.90;79.20;;;;;;4980321;28;20443;-81
2022/08/10 02:31:44;;;;;;;15.80;14.30;;;14.00;79.00;;;;;;4981624;28;20458;-82
2022/08/10 02:34:14;;;;;;;16.43;12.87;;;13.90;78.50;;;;;;4981499;28;20471;-82
2022/08/10 02:36:44;;;;;;;10.77;9.67;;;13.80;77.80;;;;;;4995713;28;20468;-82
2022/08/10 02:39:12;;;;;;;15.87;12.10;;;13.80;77.90;;;;;;5001977;28;20482;-82
2022/08/10 02:41:43;;;;;;;13.17;11.50;;;13.80;77.90;;;;;;4987932;28;20451;-82
2022/08/10 02:44:17;;;;;;;18.73;17.33;;;13.80;78.30;;;;;;4981057;28;20479;-82
2022/08/10 02:46:47;;;;;;;27.50;25.80;;;13.70;80.30;;;;;;4996174;28;20966;-82
2022/08/10 02:49:21;;;;;;;25.30;23.50;;;13.80;80.40;;;;;;5002207;28;20450;-81
2022/08/10 02:51:54;;;;;;;30.13;28.33;;;13.80;81.40;;;;;;4985644;28;20496;-82
2022/08/10 02:54:26;;;;;;;33.80;32.17;;;13.80;81.40;;;;;;4982054;28;20487;-81
2022/08/10 02:56:58;;;;;;;23.97;22.47;;;13.80;82.00;;;;;;4997189;28;20453;-81
2022/08/10 02:59:29;;;;;;;15.17;14.03;;;13.80;82.20;;;;;;5002921;28;20481;-82
2022/08/10 03:01:59;;;;;;;17.80;16.40;;;13.70;81.70;;;;;;4985981;28;20454;-82
2022/08/10 03:04:41;;;;;;;20.07;18.67;;;13.60;80.30;;;;;;4981899;28;20486;-82
2022/08/10 03:07:12;;;;;;;24.60;23.00;;;13.60;80.20;;;;;;4982691;28;20477;-83
2022/08/10 03:09:41;;;;;;;31.27;29.07;;;13.50;81.70;;;;;;4983073;28;20454;-82
2022/08/10 03:12:12;;;;;;;36.73;34.73;;;13.40;84.20;;;;;;4983040;28;20990;-82
2022/08/10 03:14:40;;;;;;;61.07;57.67;;;13.40;85.40;;;;;;4982034;28;20485;-82
2022/08/10 03:17:07;;;;;;;74.83;71.73;;;13.40;87.80;;;;;;5000033;28;20451;-82
2022/08/10 03:19:37;;;;;;;65.43;62.67;;;13.50;88.20;;;;;;5002050;28;20478;-82
2022/08/10 03:22:05;;;;;;;67.87;64.77;;;13.40;87.80;;;;;;4983523;28;20451;-83
2022/08/10 03:24:33;;;;;;;74.77;71.50;;;13.40;88.70;;;;;;4982339;28;20856;-82
2022/08/10 03:27:01;;;;;;;78.50;74.53;;;13.40;89.60;;;;;;4993071;28;20457;-82
2022/08/10 03:29:28;;;;;;;89.30;85.77;;;13.30;89.60;;;;;;4982337;28;20447;-82
2022/08/10 03:31:56;;;;;;;104.23;99.93;;;13.30;90.00;;;;;;4982221;28;20462;-82
2022/08/10 03:34:24;;;;;;;116.80;112.20;;;13.40;90.40;;;;;;4981667;28;20878;-82
2022/08/10 03:36:52;;;;;;;118.60;114.30;;;13.40;90.80;;;;;;4994686;28;21075;-82
2022/08/10 03:39:18;;;;;;;108.40;104.20;;;13.30;90.80;;;;;;5004130;28;20477;-82
2022/08/10 03:41:49;;;;;;;106.97;102.77;;;13.30;91.20;;;;;;4985217;28;20458;-82
2022/08/10 03:44:19;;;;;;;115.60;111.10;;;13.20;90.90;;;;;;4988265;28;20499;-82
2022/08/10 03:46:46;;;;;;;121.47;116.90;;;13.30;91.10;;;;;;5004318;28;20446;-82
2022/08/10 03:49:14;;;;;;;151.00;145.30;;;13.30;91.30;;;;;;5009399;28;20450;-83
2022/08/10 03:51:42;;;;;;;147.17;141.47;;;13.20;91.90;;;;;;4989239;28;20462;-83
2022/08/10 03:54:10;;;;;;;137.57;132.40;;;13.30;92.30;;;;;;4984917;28;20497;-82
2022/08/10 03:56:39;;;;;;;127.93;123.30;;;13.30;92.50;;;;;;5002220;28;20450;-82
2022/08/10 03:59:08;;;;;;;98.30;94.33;;;13.30;92.90;;;;;;5004754;28;20558;-82
2022/08/10 04:01:36;;;;;;;87.10;83.70;;;13.30;93.00;;;;;;4987989;28;20458;-82
2022/08/10 04:04:02;;;;;;;78.73;75.47;;;13.30;92.60;;;;;;4984295;28;20463;-81
2022/08/10 04:06:30;;;;;;;106.23;102.20;;;13.20;92.30;;;;;;5001008;28;20460;-83
2022/08/10 04:08:58;;;;;;;84.07;80.63;;;13.20;92.30;;;;;;5004084;28;20458;-82
2022/08/10 04:11:26;;;;;;;84.20;80.67;;;13.10;91.50;;;;;;4989638;28;20455;-83
2022/08/10 04:13:53;;;;;;;79.77;76.67;;;13.10;91.40;;;;;;4984426;28;20471;-82
2022/08/10 04:16:20;;;;;;;84.90;81.30;;;13.00;91.30;;;;;;4998385;28;20454;-82
2022/08/10 04:18:46;;;;;;;107.37;103.30;;;12.90;92.00;;;;;;5003430;28;20458;-82
2022/08/10 04:21:19;;;;;;;143.97;138.07;;;12.80;92.10;;;;;;4990336;28;20840;-82
2022/08/10 04:23:49;;;;;;;176.43;169.97;;;12.90;92.60;;;;;;4982743;28;20482;-82
2022/08/10 04:26:16;;;;;;;186.13;179.37;;;12.90;93.50;;;;;;4997163;28;20454;-81
2022/08/10 04:28:44;;;;;;;222.90;215.00;;;12.90;93.60;;;;;;5003516;28;20803;-82
2022/08/10 04:31:14;;;;;;;222.20;214.10;;;12.90;94.00;;;;;;4990696;28;20470;-81
2022/08/10 04:33:45;;;;;;;232.83;223.73;;;12.90;94.50;;;;;;4984065;28;20481;-82
2022/08/10 04:36:13;;;;;;;255.07;245.60;;;13.00;95.30;;;;;;4995711;28;20454;-83
2022/08/10 04:38:41;;;;;;;240.20;231.20;;;13.00;95.60;;;;;;5002879;28;20458;-82
2022/08/10 04:41:08;;;;;;;260.60;250.80;;;13.00;95.60;;;;;;4991152;28;20479;-82
2022/08/10 04:43:35;;;;;;;224.47;215.77;;;13.00;95.60;;;;;;4987899;28;20478;-82
2022/08/10 04:46:04;;;;;;;239.33;230.50;;;13.10;95.40;;;;;;4994598;28;20843;-83
2022/08/10 04:48:30;;;;;;;214.73;205.83;;;13.00;95.60;;;;;;4986336;28;20455;-83
2022/08/10 04:50:57;;;;;;;186.50;179.60;;;13.20;95.10;;;;;;4989841;28;20455;-82
2022/08/10 04:53:24;;;;;;;191.97;184.77;;;13.20;94.70;;;;;;4991728;28;20470;-82
2022/08/10 04:55:50;;;;;;;190.57;183.63;;;13.20;94.70;;;;;;4991201;28;20461;-81
2022/08/10 04:58:17;;;;;;;200.67;193.17;;;13.30;94.70;;;;;;4991845;28;20450;-82
2022/08/10 05:00:44;;;;;;;186.60;179.90;;;13.40;94.70;;;;;;4991801;28;20482;-82
2022/08/10 05:03:12;;;;;;;197.20;189.80;;;13.40;94.40;;;;;;4979425;28;20476;-82
2022/08/10 05:05:39;;;;;;;191.60;184.60;;;13.50;94.50;;;;;;4977282;28;20447;-82
2022/08/10 05:08:05;;;;;;;215.47;207.20;;;13.60;94.60;;;;;;4977125;28;20837;-82
2022/08/10 05:10:32;;;;;;;216.97;208.67;;;13.70;94.60;;;;;;4982424;28;20446;-82
2022/08/10 05:12:59;;;;;;;228.03;219.17;;;13.80;94.80;;;;;;4990093;28;20470;-82
2022/08/10 05:15:26;;;;;;;225.70;217.07;;;13.90;94.90;;;;;;4992198;28;20463;-82
2022/08/10 05:17:53;;;;;;;226.90;218.10;;;14.00;94.80;;;;;;4984434;28;20978;-81
2022/08/10 05:20:21;;;;;;;209.97;201.93;;;14.10;94.90;;;;;;4989729;28;20474;-82
2022/08/10 05:22:48;;;;;;;209.63;201.83;;;14.20;94.60;;;;;;4991383;28;20474;-82
2022/08/10 05:25:20;;;;;;;212.97;205.27;;;14.20;94.60;;;;;;5008317;28;20450;-81
2022/08/10 05:27:47;;;;;;;195.87;188.30;;;14.30;94.70;;;;;;5008679;28;20480;-82
2022/08/10 05:30:18;;;;;;;200.43;193.00;;;14.40;94.40;;;;;;5009195;28;20446;-81
2022/08/10 05:32:45;;;;;;;124.27;119.20;;;14.60;95.00;;;;;;5001233;28;20455;-82
2022/08/10 05:35:12;;;;;;;47.67;45.30;;;14.90;94.70;;;;;;4990989;28;20450;-82
2022/08/10 05:37:41;;;;;;;13.23;12.03;;;15.30;93.40;;;;;;4993387;28;20447;-82
2022/08/10 05:40:09;;;;;;;10.40;7.33;;;15.60;91.40;;;;;;4996589;28;20558;-82
2022/08/10 05:42:37;;;;;;;9.20;6.43;;;16.00;90.00;;;;;;4986927;28;20464;-83
2022/08/10 05:45:04;;;;;;;8.93;5.33;;;16.40;86.30;;;;;;4998600;28;20456;-83
2022/08/10 05:47:31;;;;;;;9.63;5.80;;;16.80;81.00;;;;;;4999046;28;20487;-82
2022/08/10 05:49:58;;;;;;;9.63;5.33;;;17.20;77.50;;;;;;5009282;28;20446;-82
2022/08/10 05:52:26;;;;;;;8.13;5.43;;;17.40;75.70;;;;;;5010733;28;20456;-82
2022/08/10 05:54:55;;;;;;;8.00;4.90;;;17.60;71.00;;;;;;5003724;28;20484;-83
2022/08/10 05:57:22;;;;;;;10.07;5.87;;;17.80;68.10;;;;;;5000929;28;20455;-83
2022/08/10 05:59:59;;;;;;;12.80;5.53;;;18.20;67.60;;;;;;4996227;28;20481;-83
2022/08/10 06:02:40;;;;;;;8.00;5.00;;;18.40;64.60;;;;;;5009557;28;20450;-83
2022/08/10 06:05:19;;;;;;;10.53;5.00;;;18.90;63.80;;;;;;4987601;28;20527;-83
2022/08/10 06:07:51;;;;;;;12.00;5.27;;;19.20;60.20;;;;;;5004909;28;20455;-83
2022/08/10 06:10:21;;;;;;;11.03;4.80;;;19.40;57.50;;;;;;4998453;28;20507;-83
2022/08/10 06:15:48;;;;;;;8.93;4.87;;;20.00;56.80;;;;;;4967120;28;20436;-84
2022/08/10 06:18:23;;;;;;;9.63;4.10;;;20.20;51.10;;;;;;4987699;28;20474;-84
2022/08/10 06:20:51;;;;;;;9.30;4.83;;;20.30;50.40;;;;;;5001509;28;20457;-84
2022/08/10 06:23:18;;;;;;;7.83;4.33;;;20.50;48.90;;;;;;5001420;28;20477;-84
2022/08/10 06:26:09;;;;;;;7.47;4.30;;;20.60;47.80;;;;;;4982122;28;20454;-85
2022/08/10 06:28:50;;;;;;;12.67;4.30;;;20.60;46.00;;;;;;4984996;28;20463;-85
2022/08/10 06:31:24;;;;;;;13.23;5.30;;;20.80;46.20;;;;;;4990580;28;20475;-85
2022/08/10 06:34:04;;;;;;;13.43;4.30;;;21.00;43.40;;;;;;4994794;28;20480;-85
2022/08/10 06:36:49;;;;;;;8.77;4.07;;;21.00;43.50;;;;;;4991314;28;20488;-85
2022/08/10 06:39:42;;;;;;;13.50;5.10;;;21.40;42.30;;;;;;4981013;28;20461;-85
2022/08/10 06:42:16;;;;;;;18.10;4.20;;;21.60;39.20;;;;;;4979027;28;20462;-85
2022/08/10 06:44:53;;;;;;;9.97;4.27;;;21.50;37.70;;;;;;4979953;28;20472;-85
2022/08/10 06:47:41;;;;;;;11.47;3.60;;;21.70;40.80;;;;;;4990919;28;20515;-85
2022/08/10 06:50:15;;;;;;;8.60;4.13;;;21.80;38.90;;;;;;4983259;28;20496;-86
2022/08/10 06:53:01;;;;;;;11.00;4.97;;;21.90;37.10;;;;;;4998127;28;20464;-86
2022/08/10 06:55:48;;;;;;;7.40;4.30;;;21.90;35.20;;;;;;4982354;28;20471;-87
2022/08/10 06:58:25;;;;;;;9.50;4.20;;;22.10;37.90;;;;;;4990729;28;20451;-86
2022/08/10 07:01:01;;;;;;;10.40;4.30;;;22.00;35.80;;;;;;4998913;28;20458;-87
2022/08/10 07:03:35;;;;;;;9.80;3.70;;;22.00;37.20;;;;;;4990434;28;20551;-86
2022/08/10 07:06:12;;;;;;;13.53;4.10;;;22.00;37.20;;;;;;4999226;28;20451;-87
2022/08/10 07:08:44;;;;;;;7.97;4.00;;;22.00;33.10;;;;;;4992916;28;20449;-86
2022/08/10 07:11:18;;;;;;;11.23;4.17;;;22.10;35.90;;;;;;4990760;28;20481;-85
2022/08/10 07:13:49;;;;;;;8.03;3.63;;;22.20;34.80;;;;;;5003989;28;20486;-86
2022/08/10 07:16:29;;;;;;;;;;;;;;;;;;;;;
2022/08/10 07:18:58;;;;;;;9.07;3.87;;;22.20;30.90;;;;;;4997872;28;20802;-86
2022/08/10 07:21:26;;;;;;;6.67;3.40;;;22.40;28.70;;;;;;4995070;28;20459;-83
2022/08/10 07:23:54;;;;;;;15.50;3.93;;;22.40;28.70;;;;;;4997508;28;20481;-83
2022/08/10 07:26:23;;;;;;;8.73;3.60;;;22.50;28.80;;;;;;4998167;28;20457;-84
2022/08/10 07:28:53;;;;;;;14.07;4.20;;;22.60;27.20;;;;;;4998127;28;20457;-83
2022/08/10 07:31:24;;;;;;;10.27;3.67;;;22.70;26.50;;;;;;4997841;28;20481;-84
2022/08/10 07:33:53;;;;;;;9.30;3.63;;;22.80;24.20;;;;;;4998214;28;20850;-84
2022/08/10 07:36:22;;;;;;;8.40;3.93;;;23.00;25.80;;;;;;4997626;28;20461;-84
2022/08/10 07:38:51;;;;;;;7.27;3.97;;;23.00;25.90;;;;;;4997889;28;20456;-83
2022/08/10 07:41:22;;;;;;;8.83;3.97;;;23.00;21.90;;;;;;4998231;28;20463;-83
2022/08/10 07:43:52;;;;;;;9.93;3.10;;;23.10;21.20;;;;;;4998318;28;20479;-84
2022/08/10 07:46:23;;;;;;;10.90;3.70;;;23.30;20.10;;;;;;4998040;28;20453;-84
2022/08/10 07:48:57;;;;;;;6.07;2.60;;;23.50;20.10;;;;;;4998106;28;20516;-84
2022/08/10 07:51:26;;;;;;;6.30;3.20;;;23.50;20.30;;;;;;4997951;28;20997;-83
2022/08/10 07:53:57;;;;;;;7.47;3.37;;;23.70;18.70;;;;;;4998002;28;20484;-82
2022/08/10 07:56:26;;;;;;;13.00;3.07;;;23.90;18.10;;;;;;4998192;28;20507;-83
2022/08/10 07:59:01;;;;;;;8.77;3.40;;;24.00;15.40;;;;;;4998203;28;20470;-84
2022/08/10 08:01:31;;;;;;;9.20;4.17;;;24.20;15.20;;;;;;4997660;28;20495;-83
2022/08/10 08:04:00;;;;;;;6.87;3.00;;;24.50;16.10;;;;;;4997584;28;20477;-84
2022/08/10 08:06:28;;;;;;;8.17;2.90;;;24.70;15.60;;;;;;4996832;28;20461;-84
2022/08/10 08:08:57;;;;;;;6.83;3.00;;;25.00;15.80;;;;;;4997839;28;20469;-84
2022/08/10 08:11:25;;;;;;;7.80;3.00;;;25.40;11.50;;;;;;4997428;28;20572;-84
2022/08/10 08:13:53;;;;;;;12.53;3.40;;;25.60;9.80;;;;;;4997312;28;20923;-84
2022/08/10 08:16:22;;;;;;;9.40;2.90;;;25.90;8.60;;;;;;4997769;28;20454;-85
2022/08/10 08:18:51;;;;;;;7.03;2.90;;;26.40;6.80;;;;;;4997927;28;20465;-84
2022/08/10 08:21:18;;;;;;;7.20;3.40;;;26.60;4.60;;;;;;4997494;28;20458;-84
2022/08/10 08:23:53;;;;;;;10.40;3.23;;;27.00;3.10;;;;;;4997192;28;20495;-85
2022/08/10 08:26:22;;;;;;;9.07;3.17;;;27.50;4.20;;;;;;4997446;28;20960;-85
2022/08/10 08:28:50;;;;;;;9.63;3.07;;;27.80;1.80;;;;;;4997345;28;20966;-84
2022/08/10 08:31:18;;;;;;;8.67;3.43;;;27.90;1.00;;;;;;4997278;28;20464;-84
2022/08/10 08:33:48;;;;;;;7.23;3.10;;;28.30;1.00;;;;;;4997148;28;20545;-85
2022/08/10 08:36:16;;;;;;;7.90;4.17;;;28.50;1.00;;;;;;4996833;28;20450;-84
2022/08/10 08:38:44;;;;;;;6.60;3.10;;;28.80;1.00;;;;;;4997675;28;20429;-84
2022/08/10 08:41:33;;;;;;;8.70;3.20;;;29.10;1.00;;;;;;4997209;28;20458;-84
2022/08/10 08:44:08;;;;;;;6.70;2.87;;;29.10;1.00;;;;;;4996950;28;20554;-84
2022/08/10 08:46:53;;;;;;;6.90;3.00;;;29.20;1.00;;;;;;4996761;28;20457;-84
2022/08/10 08:49:36;;;;;;;8.90;2.93;;;29.60;1.00;;;;;;4997305;28;20826;-84
2022/08/10 08:52:15;;;;;;;11.23;3.37;;;29.90;1.00;;;;;;4997120;28;20463;-85
2022/08/10 08:55:15;;;;;;;18.17;3.90;;;30.10;1.00;;;;;;4996330;28;20478;-90
2022/08/10 08:57:51;;;;;;;7.80;3.13;;;29.60;1.00;;;;;;4987161;28;20451;-85
2022/08/10 09:00:26;;;;;;;6.70;2.77;;;30.20;1.00;;;;;;4999060;28;20516;-82
2022/08/10 09:03:21;;;;;;;6.67;3.47;;;30.50;1.00;;;;;;4996226;28;20481;-83
2022/08/10 09:06:00;;;;;;;10.53;3.40;;;30.40;1.00;;;;;;5003045;28;20452;-83
2022/08/10 09:09:00;;;;;;;8.83;4.00;;;30.80;1.00;;;;;;4996294;28;20432;-83
2022/08/10 09:11:38;;;;;;;9.20;3.70;;;31.30;1.00;;;;;;4985731;28;20565;-83
2022/08/10 09:14:10;;;;;;;6.83;3.10;;;31.30;1.00;;;;;;4993855;28;20464;-82
2022/08/10 09:16:45;;;;;;;6.80;3.33;;;30.70;1.00;;;;;;4997273;28;20424;-82
2022/08/10 09:19:22;;;;;;;7.17;3.00;;;30.40;1.00;;;;;;5005196;28;20456;-83
2022/08/10 09:22:00;;;;;;;11.13;2.97;;;30.20;1.00;;;;;;4995175;28;20514;-84
2022/08/10 09:24:37;;;;;;;6.13;3.20;;;30.10;1.00;;;;;;4987168;28;20453;-84
2022/08/10 09:27:34;;;;;;;8.53;3.67;;;30.10;1.00;;;;;;4983093;28;20916;-85
2022/08/10 09:30:04;;;;;;;11.27;3.40;;;30.10;1.00;;;;;;4979364;28;20437;-83
2022/08/10 09:32:37;;;;;;;12.53;3.67;;;30.10;1.00;;;;;;4989947;28;21073;-86
2022/08/10 09:35:14;;;;;;;6.73;3.60;;;30.50;1.00;;;;;;4979297;28;20439;-84
2022/08/10 09:38:00;;;;;;;8.77;3.60;;;30.60;1.00;;;;;;4988276;28;20496;-85
2022/08/10 09:40:36;;;;;;;6.03;2.90;;;30.90;1.00;;;;;;4994842;28;20428;-85
2022/08/10 09:43:12;;;;;;;9.70;2.80;;;31.40;1.00;;;;;;4986773;28;20454;-87
2022/08/10 09:45:47;;;;;;;8.90;3.07;;;32.10;1.00;;;;;;4998045;28;20451;-85
2022/08/10 09:48:34;;;;;;;6.80;3.00;;;32.20;1.00;;;;;;4998256;28;20929;-85
2022/08/10 09:57:59;;;;;;;13.27;3.03;;;31.50;1.00;;;;;;4969079;28;20458;-86
2022/08/10 10:04:17;;;;;;;6.00;2.70;;;31.70;1.00;;;;;;4992045;28;20456;-86
2022/08/10 10:07:17;;;;;;;5.50;2.73;;;32.50;1.00;;;;;;5000793;28;20429;-86
2022/08/10 10:09:57;;;;;;;6.00;3.10;;;32.90;1.00;;;;;;4997905;28;20452;-85
2022/08/10 10:12:35;;;;;;;6.30;3.23;;;32.70;1.00;;;;;;4996824;28;20500;-85
2022/08/10 10:15:22;;;;;;;8.77;3.63;;;32.80;1.00;;;;;;4984451;28;20452;-84
2022/08/10 10:18:04;;;;;;;6.80;2.80;;;32.40;1.00;;;;;;4991025;28;20454;-85
2022/08/10 10:20:47;;;;;;;8.23;2.60;;;32.50;1.00;;;;;;4979360;28;20463;-86
2022/08/10 10:23:33;;;;;;;8.97;3.90;;;33.00;1.00;;;;;;4991209;28;20533;-85
2022/08/10 10:26:10;;;;;;;7.13;2.80;;;33.00;1.00;;;;;;4979508;28;20466;-85
2022/08/10 10:28:47;;;;;;;9.13;3.20;;;33.50;1.00;;;;;;4997852;28;20428;-85
2022/08/10 10:31:24;;;;;;;10.70;2.80;;;33.40;1.00;;;;;;4997627;28;20481;-86
2022/08/10 10:34:02;;;;;;;9.40;3.00;;;33.40;1.00;;;;;;4995302;28;20445;-85
2022/08/10 10:36:29;;;;;;;6.57;3.17;;;33.70;1.00;;;;;;4981182;28;20458;-85
2022/08/10 10:39:01;;;;;;;9.77;3.43;;;34.10;1.00;;;;;;4997849;28;20429;-85
2022/08/10 10:41:37;;;;;;;11.60;3.10;;;34.10;1.00;;;;;;4996290;28;20463;-85
2022/08/10 10:44:16;;;;;;;8.87;3.20;;;33.70;1.00;;;;;;4977983;28;20452;-86
2022/08/10 10:46:55;;;;;;;39.93;3.93;;;33.60;1.00;;;;;;4982207;28;20453;-86
2022/08/10 10:49:38;;;;;;;6.40;3.00;;;33.30;1.00;;;;;;5002788;28;20835;-86
2022/08/10 10:52:19;;;;;;;7.53;3.43;;;33.40;1.00;;;;;;4993069;28;20457;-86
2022/08/10 10:54:56;;;;;;;7.53;3.07;;;33.10;1.00;;;;;;4982149;28;20454;-86
2022/08/10 10:57:30;;;;;;;6.57;3.20;;;33.20;1.00;;;;;;4989133;28;20450;-85
2022/08/10 11:00:04;;;;;;;6.97;3.57;;;34.60;1.00;;;;;;4982940;28;20466;-86
2022/08/10 11:02:43;;;;;;;5.90;3.13;;;34.20;1.00;;;;;;4992985;28;20475;-85
2022/08/10 11:05:19;;;;;;;7.50;3.23;;;34.80;1.00;;;;;;5001317;28;20429;-86
2022/08/10 11:07:54;;;;;;;7.57;3.10;;;36.00;1.00;;;;;;5000411;28;20424;-86
2022/08/10 11:10:25;;;;;;;7.93;3.40;;;36.00;1.00;;;;;;5001726;28;20467;-86
2022/08/10 11:13:03;;;;;;;6.93;3.10;;;36.40;1.00;;;;;;4985452;28;20474;-86
2022/08/10 11:15:35;;;;;;;7.33;2.93;;;35.20;1.00;;;;;;4982151;28;20462;-85
2022/08/10 11:18:09;;;;;;;9.40;3.80;;;35.30;1.00;;;;;;4997679;28;20967;-85
2022/08/10 11:20:40;;;;;;;9.03;3.40;;;36.30;1.00;;;;;;4992813;28;20440;-86
2022/08/10 11:23:22;;;;;;;8.37;2.90;;;35.40;1.00;;;;;;4980875;28;20453;-86
2022/08/10 11:29:07;;;;;;;5.17;2.63;;;35.60;1.00;;;;;;4974748;28;20452;-87
2022/08/10 11:31:39;;;;;;;5.27;2.73;;;35.60;1.00;;;;;;4994088;28;20420;-85
2022/08/10 11:34:14;;;;;;;8.23;3.50;;;35.50;1.00;;;;;;4996873;28;20444;-85
2022/08/10 11:36:55;;;;;;;5.47;2.60;;;35.60;1.00;;;;;;4984158;28;20530;-85
2022/08/10 11:39:34;;;;;;;7.67;3.50;;;36.80;1.00;;;;;;5003715;28;20538;-86
2022/08/10 11:42:06;;;;;;;6.20;2.90;;;36.50;1.00;;;;;;5002121;28;20580;-86
2022/08/10 11:44:46;;;;;;;5.50;2.73;;;35.40;1.00;;;;;;5000989;28;20459;-89
2022/08/10 11:50:46;;;;;;;7.60;3.13;;;35.90;1.00;;;;;;4990164;28;20437;-87
2022/08/10 11:53:30;;;;;;;6.17;2.90;;;36.10;1.00;;;;;;4992916;28;20535;-86
2022/08/10 12:01:53;;;;;;;6.53;2.97;;;36.20;1.00;;;;;;4980608;28;20481;-85
2022/08/10 12:04:40;;;;;;;8.33;3.03;;;35.70;1.00;;;;;;4978995;28;20448;-86
2022/08/10 12:07:08;;;;;;;8.40;2.97;;;37.40;1.00;;;;;;4976396;28;20457;-86
2022/08/10 12:09:38;;;;;;;5.83;2.60;;;36.80;1.00;;;;;;4976770;28;20882;-85
2022/08/10 12:12:06;;;;;;;7.30;2.87;;;36.80;1.00;;;;;;4995466;28;20442;-85
2022/08/10 12:14:37;;;;;;;5.57;2.63;;;36.20;1.00;;;;;;4984642;28;20478;-85
2022/08/10 12:17:29;;;;;;;6.00;2.83;;;37.00;1.00;;;;;;4976655;28;20452;-84
2022/08/10 12:20:06;;;;;;;7.17;3.00;;;36.60;1.00;;;;;;4985091;28;20453;-85
2022/08/10 12:25:59;;;;;;;5.50;2.50;;;36.20;1.00;;;;;;4996244;28;20822;-85
2022/08/10 12:31:42;;;;;;;15.00;2.90;;;36.30;1.00;;;;;;4977639;28;20452;-87
2022/08/10 12:34:22;;;;;;;9.00;3.17;;;36.50;1.00;;;;;;4976153;28;20475;-86
2022/08/10 12:37:00;;;;;;;6.03;2.90;;;36.20;1.00;;;;;;4982041;28;20537;-88
2022/08/10 12:39:36;;;;;;;6.17;2.77;;;36.70;1.00;;;;;;4982120;28;20447;-86
2022/08/10 12:42:09;;;;;;;5.73;2.70;;;37.70;1.00;;;;;;4976482;28;20537;-86
2022/08/10 12:44:42;;;;;;;6.07;2.53;;;38.50;1.00;;;;;;4981124;28;20458;-86
2022/08/10 12:47:20;;;;;;;6.10;2.60;;;38.80;1.00;;;;;;4981059;28;20455;-84
2022/08/10 12:49:54;;;;;;;6.77;3.03;;;37.20;1.00;;;;;;4997549;28;20446;-84
2022/08/10 12:52:29;;;;;;;7.43;3.00;;;37.60;1.00;;;;;;4999478;28;20481;-84
2022/08/10 12:54:57;;;;;;;6.43;2.67;;;36.60;1.00;;;;;;4998404;28;20757;-85
2022/08/10 12:57:25;;;;;;;6.73;2.80;;;36.60;1.00;;;;;;4998838;28;20461;-85
2022/08/10 12:59:56;;;;;;;7.03;2.90;;;37.30;1.00;;;;;;4994542;28;20520;-84
2022/08/10 13:02:27;;;;;;;5.80;2.80;;;38.30;1.00;;;;;;4988265;28;20436;-84
2022/08/10 13:05:05;;;;;;;7.13;2.30;;;36.80;1.00;;;;;;4987264;28;20755;-84
2022/08/10 13:09:07;;;;;;;5.57;3.00;;;37.40;1.00;;;;;;4995010;28;20894;-85
2022/08/10 13:10:51;;;;;;;8.43;2.50;;;37.50;1.00;;;;;;4989920;28;20447;-84
2022/08/10 13:13:35;;;;;;;5.33;2.23;;;37.50;1.00;;;;;;4990743;28;20477;-84
2022/08/10 13:16:10;;;;;;;7.30;2.60;;;36.70;1.00;;;;;;4980379;28;20516;-85
2022/08/10 13:18:51;;;;;;;5.97;2.40;;;36.50;1.00;;;;;;4974178;28;20491;-85
2022/08/10 13:21:40;;;;;;;9.30;2.87;;;36.60;1.00;;;;;;4986352;28;20479;-85
2022/08/10 13:24:20;;;;;;;8.60;2.60;;;36.40;1.00;;;;;;4988272;28;20447;-85
2022/08/10 13:26:59;;;;;;;8.50;3.00;;;36.50;1.00;;;;;;4981253;28;20429;-84
2022/08/10 13:29:51;;;;;;;5.30;2.67;;;36.80;1.00;;;;;;4994334;28;20518;-86
2022/08/10 13:59:45;;;;;;;8.20;2.97;;;37.70;1.00;;;;;;5119472;27;20565;-85
2022/08/10 14:04:57;;;;;;;4.80;2.50;;;38.90;1.00;;;;;;5052048;28;21045;-84
2022/08/10 14:07:26;;;;;;;5.57;2.60;;;39.90;1.00;;;;;;5075602;28;20498;-84
2022/08/10 14:10:33;;;;;;;6.37;2.90;;;40.10;1.00;;;;;;5090162;28;20442;-84
2022/08/10 14:13:50;;;;;;;10.47;3.00;;;39.40;1.00;;;;;;5080103;28;20990;-85
2022/08/10 14:16:30;;;;;;;6.83;3.70;;;37.60;1.00;;;;;;5065093;28;20457;-85